Time,TemperatureF,DewpointF,PressureIn,WindDirection,WindDirectionDegrees,WindSpeedMPH,WindSpeedGustMPH,Humidity,HourlyPrecipIn,Conditions,Clouds,dailyrainin,SoftwareType,DateUTC
2013-05-28 00:00:00,60.1,33.0,0.00,SE,144,0.0,0.0,36,0.00,,,0.00,Weather View 32 v70,2013-05-28 04:00:00,
2013-05-28 00:15:00,59.7,33.3,0.00,SE,144,0.0,0.0,37,0.00,,,0.00,Weather View 32 v70,2013-05-28 04:15:00,
2013-05-28 00:30:00,59.0,35.9,0.00,SE,144,0.0,0.0,42,0.00,,,0.00,Weather View 32 v70,2013-05-28 04:30:00,
2013-05-28 00:45:00,59.0,34.0,0.00,SE,144,0.0,0.0,39,0.00,,,0.00,Weather View 32 v70,2013-05-28 04:45:00,
2013-05-28 01:00:00,58.8,33.9,0.00,SE,144,0.0,0.0,39,0.00,,,0.00,Weather View 32 v70,2013-05-28 05:00:00,
2013-05-28 01:15:00,58.3,35.2,0.00,SE,144,0.0,0.0,42,0.00,,,0.00,Weather View 32 v70,2013-05-28 05:15:00,
2013-05-28 01:30:00,57.9,34.3,0.00,SE,144,0.0,0.0,41,0.00,,,0.00,Weather View 32 v70,2013-05-28 05:30:00,
2013-05-28 01:45:00,57.6,34.6,0.00,SE,144,0.0,0.0,42,0.00,,,0.00,Weather View 32 v70,2013-05-28 05:45:00,
2013-05-28 02:00:00,57.2,36.6,0.00,SE,144,0.0,0.0,46,0.00,,,0.00,Weather View 32 v70,2013-05-28 06:00:00,
2013-05-28 02:15:00,56.8,36.2,0.00,SE,144,0.0,0.0,46,0.00,,,0.00,Weather View 32 v70,2013-05-28 06:15:00,
2013-05-28 02:30:00,56.3,36.8,0.00,SE,144,0.0,0.0,48,0.00,,,0.00,Weather View 32 v70,2013-05-28 06:30:00,
2013-05-28 02:45:00,55.4,37.0,0.00,SE,144,0.0,0.0,50,0.00,,,0.00,Weather View 32 v70,2013-05-28 06:45:00,
2013-05-28 03:00:00,55.2,37.9,0.00,SE,144,0.0,0.0,52,0.00,,,0.00,Weather View 32 v70,2013-05-28 07:00:00,
2013-05-28 03:15:00,54.3,38.5,0.00,SE,144,0.0,0.0,55,0.00,,,0.00,Weather View 32 v70,2013-05-28 07:15:00,
2013-05-28 03:30:00,54.1,38.3,0.00,SE,144,0.0,0.0,55,0.00,,,0.00,Weather View 32 v70,2013-05-28 07:30:00,
2013-05-28 03:45:00,54.0,38.6,0.00,SE,144,0.0,0.0,56,0.00,,,0.00,Weather View 32 v70,2013-05-28 07:45:00,
2013-05-28 04:00:00,54.0,39.0,0.00,SE,144,0.0,0.0,57,0.00,,,0.00,Weather View 32 v70,2013-05-28 08:00:00,
2013-05-28 04:15:00,53.8,39.3,0.00,SE,144,0.0,0.0,58,0.00,,,0.00,Weather View 32 v70,2013-05-28 08:15:00,
2013-05-28 04:30:00,53.4,39.9,0.00,SE,144,0.0,0.0,60,0.00,,,0.00,Weather View 32 v70,2013-05-28 08:30:00,
2013-05-28 04:45:00,53.1,39.5,0.00,SE,144,0.0,0.0,60,0.00,,,0.00,Weather View 32 v70,2013-05-28 08:45:00,
2013-05-28 05:00:00,52.9,40.2,0.00,SE,144,0.0,0.0,62,0.00,,,0.00,Weather View 32 v70,2013-05-28 09:00:00,
2013-05-28 05:15:00,52.9,40.6,0.00,SE,144,0.0,0.0,63,0.00,,,0.00,Weather View 32 v70,2013-05-28 09:15:00,
2013-05-28 05:30:00,52.5,40.3,0.00,SE,144,0.0,0.0,63,0.00,,,0.00,Weather View 32 v70,2013-05-28 09:30:00,
2013-05-28 05:45:00,52.3,40.1,0.00,SE,144,0.0,0.0,63,0.00,,,0.00,Weather View 32 v70,2013-05-28 09:45:00,
2013-05-28 06:00:00,52.3,40.9,0.00,SE,144,0.0,0.0,65,0.00,,,0.00,Weather View 32 v70,2013-05-28 10:00:00,
2013-05-28 06:15:00,52.5,40.7,0.00,SE,144,0.0,0.0,64,0.00,,,0.00,Weather View 32 v70,2013-05-28 10:15:00,
2013-05-28 06:30:00,52.9,41.4,0.00,SE,144,0.0,0.0,65,0.00,,,0.00,Weather View 32 v70,2013-05-28 10:30:00,
2013-05-28 06:45:00,53.4,41.9,0.00,SE,144,0.0,0.0,65,0.00,,,0.00,Weather View 32 v70,2013-05-28 10:45:00,
2013-05-28 07:00:00,54.1,43.0,0.00,SE,143,0.0,0.0,66,0.00,,,0.00,Weather View 32 v70,2013-05-28 11:00:00,
2013-05-28 07:15:00,54.5,42.1,0.00,SE,144,0.0,0.0,63,0.00,,,0.00,Weather View 32 v70,2013-05-28 11:15:00,
2013-05-28 07:30:00,55.4,43.0,0.00,SE,144,0.0,0.0,63,0.00,,,0.00,Weather View 32 v70,2013-05-28 11:30:00,
2013-05-28 07:45:00,56.5,44.8,0.00,SE,144,0.0,0.0,65,0.00,,,0.00,Weather View 32 v70,2013-05-28 11:45:00,
2013-05-28 08:00:00,56.8,43.9,0.00,WNW,287,0.0,0.0,62,0.00,,,0.00,Weather View 32 v70,2013-05-28 12:00:00,
2013-05-28 08:15:00,58.3,44.9,0.00,WNW,287,0.0,0.0,61,0.00,,,0.00,Weather View 32 v70,2013-05-28 12:15:00,
2013-05-28 08:30:00,60.3,39.9,0.00,North,7,0.0,2.0,47,0.00,,,0.00,Weather View 32 v70,2013-05-28 12:30:00,
2013-05-28 08:45:00,61.9,38.5,0.00,North,7,0.0,2.0,42,0.00,,,0.00,Weather View 32 v70,2013-05-28 12:45:00,
2013-05-28 09:00:00,63.3,39.8,0.00,NW,324,0.0,2.0,42,0.00,,,0.00,Weather View 32 v70,2013-05-28 13:00:00,
2013-05-28 09:15:00,63.7,38.2,0.00,South,186,0.0,2.0,39,0.00,,,0.00,Weather View 32 v70,2013-05-28 13:15:00,
2013-05-28 09:30:00,63.9,39.0,0.00,West,273,0.0,4.0,40,0.00,,,0.00,Weather View 32 v70,2013-05-28 13:30:00,
2013-05-28 09:45:00,64.2,39.3,0.00,NW,316,0.0,4.0,40,0.00,,,0.00,Weather View 32 v70,2013-05-28 13:45:00,
2013-05-28 10:00:00,64.6,42.1,0.00,SE,131,3.0,4.0,44,0.00,,,0.00,Weather View 32 v70,2013-05-28 14:00:00,
2013-05-28 10:15:00,65.7,41.9,0.00,WNW,287,0.0,4.0,42,0.00,,,0.00,Weather View 32 v70,2013-05-28 14:15:00,
2013-05-28 10:30:00,65.8,40.1,0.00,WSW,242,0.0,4.0,39,0.00,,,0.00,Weather View 32 v70,2013-05-28 14:30:00,
2013-05-28 10:45:00,65.5,40.5,0.00,WSW,240,3.0,4.0,40,0.00,,,0.00,Weather View 32 v70,2013-05-28 14:45:00,
2013-05-28 11:00:00,65.1,38.8,0.00,SE,129,0.0,5.0,38,0.00,,,0.00,Weather View 32 v70,2013-05-28 15:00:00,
2013-05-28 11:15:00,64.6,39.0,0.00,South,172,0.0,5.0,39,0.00,,,0.00,Weather View 32 v70,2013-05-28 15:15:00,
2013-05-28 11:30:00,63.7,43.0,0.00,SW,227,0.0,5.0,47,0.00,,,0.00,Weather View 32 v70,2013-05-28 15:30:00,
2013-05-28 11:45:00,62.1,45.7,0.00,SW,227,2.0,5.0,55,0.00,,,0.00,Weather View 32 v70,2013-05-28 15:45:00,
2013-05-28 12:00:00,61.0,46.5,0.00,SSW,207,0.0,5.0,59,0.00,,,0.00,Weather View 32 v70,2013-05-28 16:00:00,
2013-05-28 12:15:00,60.4,48.2,0.00,SSW,207,0.0,5.0,64,0.00,,,0.00,Weather View 32 v70,2013-05-28 16:15:00,
2013-05-28 12:30:00,60.3,49.2,0.00,South,182,0.0,5.0,67,0.00,,,0.00,Weather View 32 v70,2013-05-28 16:30:00,
2013-05-28 12:45:00,60.1,50.2,0.00,South,182,0.0,4.0,70,0.04,,,0.04,Weather View 32 v70,2013-05-28 16:45:00,
2013-05-28 13:00:00,60.1,51.0,0.00,ESE,107,0.0,3.0,72,0.04,,,0.04,Weather View 32 v70,2013-05-28 17:00:00,
2013-05-28 13:15:00,59.9,53.0,0.00,ESE,108,0.0,3.0,78,0.04,,,0.04,Weather View 32 v70,2013-05-28 17:15:00,
2013-05-28 13:20:00,59.9,53.0,0.00,ESE,108,0.0,3.0,78,0.04,,,0.04,Weather View 32 v70,2013-05-28 17:20:00,
2013-05-28 13:30:00,59.5,51.6,0.00,SSW,203,0.0,4.0,75,0.08,,,0.08,Weather View 32 v70,2013-05-28 17:30:00,
2013-05-28 13:45:00,59.4,51.8,0.00,SW,225,0.0,4.0,76,0.04,,,0.08,Weather View 32 v70,2013-05-28 17:45:00,
2013-05-28 14:00:00,59.4,52.8,0.00,SW,235,0.0,4.0,79,0.04,,,0.08,Weather View 32 v70,2013-05-28 18:00:00,
2013-05-28 14:15:00,59.4,53.5,0.00,North,0,0.0,4.0,81,0.04,,,0.08,Weather View 32 v70,2013-05-28 18:15:00,
2013-05-28 14:21:00,59.4,53.5,0.00,North,0,0.0,4.0,81,0.04,,,0.08,Weather View 32 v70,2013-05-28 18:21:00,
2013-05-28 14:30:00,59.4,54.2,0.00,North,0,0.0,3.0,83,0.04,,,0.12,Weather View 32 v70,2013-05-28 18:30:00,
2013-05-28 14:45:00,59.2,54.0,0.00,North,0,0.0,3.0,83,0.08,,,0.16,Weather View 32 v70,2013-05-28 18:45:00,
2013-05-28 15:00:00,58.8,54.0,0.00,North,0,0.0,3.0,84,0.12,,,0.20,Weather View 32 v70,2013-05-28 19:00:00,
2013-05-28 15:15:00,58.5,54.3,0.00,North,0,0.0,3.0,86,0.16,,,0.24,Weather View 32 v70,2013-05-28 19:15:00,
2013-05-28 15:21:00,58.5,54.3,0.00,North,0,0.0,3.0,86,0.16,,,0.24,Weather View 32 v70,2013-05-28 19:21:00,
2013-05-28 15:30:00,58.3,54.7,0.00,NNW,338,0.0,3.0,88,0.16,,,0.28,Weather View 32 v70,2013-05-28 19:30:00,
2013-05-28 15:45:00,58.1,55.5,0.00,North,357,0.0,3.0,91,0.16,,,0.31,Weather View 32 v70,2013-05-28 19:45:00,
2013-05-28 16:00:00,58.3,55.7,0.00,North,357,0.0,3.0,91,0.16,,,0.35,Weather View 32 v70,2013-05-28 20:00:00,
2013-05-28 16:15:00,57.9,55.3,0.00,South,179,0.0,4.0,91,0.12,,,0.35,Weather View 32 v70,2013-05-28 20:15:00,
2013-05-28 16:22:00,57.9,55.3,0.00,South,179,0.0,4.0,91,0.12,,,0.35,Weather View 32 v70,2013-05-28 20:22:00,
2013-05-28 16:30:00,57.6,54.6,0.00,SSW,213,3.0,5.0,90,0.08,,,0.35,Weather View 32 v70,2013-05-28 20:30:00,
2013-05-28 16:45:00,57.6,54.9,0.00,WSW,244,0.0,5.0,91,0.08,,,0.39,Weather View 32 v70,2013-05-28 20:45:00,
2013-05-28 17:00:00,57.6,54.9,0.00,WSW,237,0.0,5.0,91,0.04,,,0.39,Weather View 32 v70,2013-05-28 21:00:00,
2013-05-28 17:15:00,57.0,54.1,0.00,South,169,0.0,5.0,90,0.04,,,0.39,Weather View 32 v70,2013-05-28 21:15:00,
2013-05-28 17:22:00,57.0,54.1,0.00,South,169,0.0,5.0,90,0.04,,,0.39,Weather View 32 v70,2013-05-28 21:22:00,
2013-05-28 17:30:00,57.2,54.6,0.00,WSW,240,0.0,4.0,91,0.04,,,0.39,Weather View 32 v70,2013-05-28 21:30:00,
2013-05-28 17:45:00,57.2,54.9,0.00,North,4,0.0,4.0,92,0.00,,,0.39,Weather View 32 v70,2013-05-28 21:45:00,
2013-05-28 18:00:00,57.2,54.9,0.00,North,4,0.0,4.0,92,0.04,,,0.43,Weather View 32 v70,2013-05-28 22:00:00,
2013-05-28 18:15:00,57.2,54.9,0.00,North,4,0.0,4.0,92,0.04,,,0.43,Weather View 32 v70,2013-05-28 22:15:00,
2013-05-28 18:23:00,57.2,54.9,0.00,North,4,0.0,4.0,92,0.04,,,0.43,Weather View 32 v70,2013-05-28 22:23:00,
2013-05-28 18:30:00,57.2,54.9,0.00,North,4,0.0,4.0,92,0.04,,,0.43,Weather View 32 v70,2013-05-28 22:30:00,
2013-05-28 18:45:00,57.2,54.9,0.00,North,4,0.0,0.0,92,0.04,,,0.43,Weather View 32 v70,2013-05-28 22:45:00,
2013-05-28 19:00:00,57.4,55.1,0.00,North,4,0.0,0.0,92,0.00,,,0.43,Weather View 32 v70,2013-05-28 23:00:00,
2013-05-28 19:15:00,57.2,55.2,0.00,North,4,0.0,0.0,93,0.00,,,0.43,Weather View 32 v70,2013-05-28 23:15:00,
2013-05-28 19:24:00,57.2,55.2,0.00,North,4,0.0,0.0,93,0.00,,,0.43,Weather View 32 v70,2013-05-28 23:24:00,
2013-05-28 19:30:00,57.4,55.4,0.00,North,4,0.0,0.0,93,0.00,,,0.43,Weather View 32 v70,2013-05-28 23:30:00,
2013-05-28 19:45:00,57.6,55.5,0.00,North,4,0.0,0.0,93,0.00,,,0.43,Weather View 32 v70,2013-05-28 23:45:00,
2013-05-28 20:00:00,57.6,55.5,0.00,North,4,0.0,0.0,93,0.00,,,0.43,Weather View 32 v70,2013-05-29 00:00:00,
2013-05-28 20:15:00,57.6,55.5,0.00,North,4,0.0,0.0,93,0.00,,,0.43,Weather View 32 v70,2013-05-29 00:15:00,
2013-05-28 20:24:00,57.6,55.5,0.00,North,4,0.0,0.0,93,0.00,,,0.43,Weather View 32 v70,2013-05-29 00:24:00,
2013-05-28 20:30:00,57.4,55.4,0.00,North,4,0.0,0.0,93,0.00,,,0.43,Weather View 32 v70,2013-05-29 00:30:00,
2013-05-28 20:45:00,57.6,55.5,0.00,North,4,0.0,0.0,93,0.00,,,0.43,Weather View 32 v70,2013-05-29 00:45:00,
2013-05-28 21:00:00,57.6,55.5,0.00,North,4,0.0,0.0,93,0.00,,,0.43,Weather View 32 v70,2013-05-29 01:00:00,
2013-05-28 21:15:00,57.6,55.8,0.00,North,4,0.0,0.0,94,0.00,,,0.43,Weather View 32 v70,2013-05-29 01:15:00,
2013-05-28 21:30:00,57.7,56.0,0.00,North,4,0.0,0.0,94,0.00,,,0.43,Weather View 32 v70,2013-05-29 01:30:00,
2013-05-28 21:45:00,57.7,56.0,0.00,North,4,0.0,0.0,94,0.00,,,0.43,Weather View 32 v70,2013-05-29 01:45:00,
2013-05-28 22:00:00,57.7,56.0,0.00,North,4,0.0,0.0,94,0.00,,,0.43,Weather View 32 v70,2013-05-29 02:00:00,
2013-05-28 22:15:00,57.7,56.0,0.00,North,4,0.0,0.0,94,0.00,,,0.43,Weather View 32 v70,2013-05-29 02:15:00,
2013-05-28 22:30:00,57.6,55.8,0.00,North,4,0.0,0.0,94,0.00,,,0.43,Weather View 32 v70,2013-05-29 02:30:00,
2013-05-28 22:45:00,57.6,55.8,0.00,North,4,0.0,0.0,94,0.00,,,0.43,Weather View 32 v70,2013-05-29 02:45:00,
2013-05-28 23:00:00,57.6,55.8,0.00,North,4,0.0,0.0,94,0.00,,,0.43,Weather View 32 v70,2013-05-29 03:00:00,
2013-05-28 23:15:00,57.7,56.3,0.00,North,4,0.0,0.0,95,0.00,,,0.43,Weather View 32 v70,2013-05-29 03:15:00,
2013-05-28 23:30:00,57.9,56.5,0.00,North,4,0.0,0.0,95,0.00,,,0.43,Weather View 32 v70,2013-05-29 03:30:00,
2013-05-28 23:45:00,57.9,56.5,0.00,North,4,0.0,0.0,95,0.00,,,0.43,Weather View 32 v70,2013-05-29 03:45:00,